Time;durP1;ratioP1;P1;durP2;ratioP2;P2;SDS_P1;SDS_P2;PMS_P1;PMS_P2;Temp;Humidity;BMP_temperature;BMP_pressure;BME280_temperature;BME280_humidity;BME280_pressure;Samples;Min_cycle;Max_cycle;Signal;HPM_P1;HPM_P2
2021/11/14 00:01:36;;;;;;;24.77;10.40;;;8.10;99.90;;;6.99;100.00;61717.66;5064795;28;20132;-74
2021/11/14 00:04:05;;;;;;;25.00;10.82;;;8.10;99.90;;;7.00;100.00;61718.03;5088760;28;20566;-76
2021/11/14 00:06:32;;;;;;;27.02;11.40;;;8.10;99.90;;;7.00;100.00;61718.03;5071682;28;20044;-74
2021/11/14 00:08:59;;;;;;;41.75;14.63;;;8.10;99.90;;;7.00;100.00;61718.03;5052595;28;20044;-75
2021/11/14 00:11:26;;;;;;;37.97;13.60;;;8.10;99.90;;;7.00;100.00;61717.91;5067487;28;20044;-75
2021/11/14 00:13:53;;;;;;;28.17;10.70;;;8.10;99.90;;;7.00;100.00;61718.19;5088268;28;20071;-75
2021/11/14 00:16:22;;;;;;;23.02;11.63;;;8.10;99.90;;;6.99;100.00;61717.81;5058351;28;20131;-75
2021/11/14 00:18:49;;;;;;;44.83;15.73;;;8.10;99.90;;;6.99;100.00;61717.81;5083985;28;20094;-74
2021/11/14 00:21:20;;;;;;;35.08;13.98;;;8.10;99.90;;;6.99;100.00;61717.28;5055823;28;20550;-75
2021/11/14 00:23:48;;;;;;;31.42;12.30;;;8.10;99.90;;;6.99;100.00;61717.16;5083468;28;20060;-76
2021/11/14 00:26:16;;;;;;;31.35;13.32;;;8.20;99.90;;;6.99;100.00;61717.00;5073062;28;20472;-75
2021/11/14 00:28:43;;;;;;;33.42;12.77;;;8.20;99.90;;;6.99;100.00;61717.31;5070981;28;20083;-74
2021/11/14 00:31:13;;;;;;;20.55;10.57;;;8.20;99.90;;;6.99;100.00;61717.59;5078342;28;20442;-76
2021/11/14 00:33:43;;;;;;;35.72;11.32;;;8.20;99.90;;;6.99;100.00;61717.84;5069766;28;20446;-76
2021/11/14 00:36:13;;;;;;;35.67;13.38;;;8.10;99.90;;;7.00;100.00;61717.91;5070284;28;20047;-74
2021/11/14 00:38:39;;;;;;;33.15;12.20;;;8.20;99.90;;;7.00;100.00;61718.19;5080064;28;20075;-76
2021/11/14 00:41:08;;;;;;;21.23;9.45;;;8.10;99.90;;;7.01;100.00;61718.88;5083522;28;20072;-74
2021/11/14 00:43:39;;;;;;;19.63;9.75;;;8.10;99.90;;;7.02;100.00;61720.25;5088031;28;20075;-77
2021/11/14 00:46:07;;;;;;;31.80;12.75;;;8.10;99.90;;;7.02;100.00;61720.38;5067603;28;20070;-76
2021/11/14 00:48:35;;;;;;;29.15;10.55;;;8.10;99.90;;;7.03;100.00;61721.91;5085693;28;20040;-77
2021/11/14 00:51:03;;;;;;;38.58;12.23;;;8.10;99.90;;;7.04;100.00;61722.44;5085557;28;20134;-74
2021/11/14 00:53:31;;;;;;;30.80;10.82;;;8.10;99.90;;;7.04;100.00;61722.66;5067289;28;20374;-74
2021/11/14 00:55:58;;;;;;;88.50;17.83;;;8.20;99.90;;;7.04;100.00;61722.28;5070815;28;20584;-77
2021/11/14 00:58:26;;;;;;;57.95;13.93;;;8.20;99.90;;;7.04;100.00;61722.19;5085638;28;20123;-77
2021/11/14 01:00:54;;;;;;;70.85;14.57;;;8.20;99.90;;;7.04;100.00;61722.34;5098550;28;20059;-73
2021/11/14 01:03:22;;;;;;;110.35;19.20;;;8.20;99.90;;;7.04;100.00;61722.28;5074936;28;20076;-77
2021/11/14 01:05:50;;;;;;;96.00;16.70;;;8.20;99.90;;;7.04;100.00;61722.19;5070201;28;20051;-78
2021/11/14 01:08:19;;;;;;;102.47;15.60;;;8.20;99.90;;;7.04;100.00;61722.34;5069115;28;20076;-77
2021/11/14 01:10:50;;;;;;;183.23;19.30;;;8.20;99.90;;;7.04;100.00;61722.59;5069359;28;20465;-74
2021/11/14 01:13:19;;;;;;;223.88;21.42;;;8.20;99.90;;;7.04;100.00;61723.31;5077714;28;20053;-75
2021/11/14 01:15:48;;;;;;;129.52;16.35;;;8.20;99.90;;;7.05;100.00;61723.81;5069183;28;20142;-75
2021/11/14 01:18:17;;;;;;;301.80;23.38;;;8.20;99.90;;;7.06;100.00;61724.63;5070170;28;20554;-73
2021/11/14 01:20:48;;;;;;;360.10;24.23;;;8.30;99.90;;;7.07;100.00;61725.75;5085233;28;20087;-75
2021/11/14 01:23:17;;;;;;;216.63;18.67;;;8.30;99.90;;;7.08;100.00;61726.81;5069760;28;20505;-75
2021/11/14 01:25:45;;;;;;;33.75;10.82;;;8.30;99.90;;;7.10;100.00;61729.31;5084479;28;20082;-75
2021/11/14 01:28:13;;;;;;;52.63;10.05;;;8.30;99.90;;;7.13;100.00;61732.31;5090954;28;20127;-75
2021/11/14 01:30:44;;;;;;;71.93;13.68;;;8.40;99.90;;;7.15;100.00;61734.50;5089933;28;20097;-75
2021/11/14 01:33:12;;;;;;;141.25;15.15;;;8.40;99.90;;;7.17;100.00;61737.09;5073246;28;20488;-75
2021/11/14 01:35:39;;;;;;;201.82;20.23;;;8.40;99.90;;;7.19;100.00;61738.88;5083524;28;20075;-74
2021/11/14 01:38:07;;;;;;;129.95;13.27;;;8.40;99.90;;;7.21;100.00;61740.88;5085531;28;20048;-75
2021/11/14 01:40:51;;;;;;;151.93;16.25;;;8.50;99.90;;;7.23;100.00;61743.09;5072938;28;20103;-75
2021/11/14 01:43:31;;;;;;;139.95;13.55;;;8.40;99.90;;;7.25;100.00;61745.13;5088424;28;20540;-75
2021/11/14 01:45:58;;;;;;;89.35;12.43;;;8.40;99.90;;;7.27;100.00;61747.19;5085465;28;20079;-75
2021/11/14 01:48:26;;;;;;;43.88;9.73;;;8.40;99.90;;;7.29;100.00;61749.50;5088006;28;20105;-74
2021/11/14 01:50:54;;;;;;;46.95;10.48;;;8.40;99.90;;;7.32;100.00;61752.59;5071734;28;20295;-75
2021/11/14 01:53:21;;;;;;;211.30;16.13;;;8.50;99.90;;;7.34;100.00;61754.78;5070506;28;20102;-74
2021/11/14 01:55:48;;;;;;;109.57;15.63;;;8.50;99.90;;;7.35;100.00;61756.00;5090138;28;20152;-74
2021/11/14 01:58:22;;;;;;;241.23;21.05;;;8.40;99.90;;;7.36;100.00;61756.53;5064987;28;20459;-75
2021/11/14 02:00:58;;;;;;;123.13;17.85;;;8.40;99.90;;;7.37;100.00;61757.19;5065075;28;20375;-75
2021/11/14 02:03:28;;;;;;;167.85;20.02;;;8.40;99.90;;;7.37;100.00;61757.03;5075824;28;20500;-74
2021/11/14 02:05:57;;;;;;;84.32;14.25;;;8.40;99.90;;;7.37;100.00;61757.41;5068538;28;20535;-74
2021/11/14 02:08:24;;;;;;;59.30;10.93;;;8.40;99.90;;;7.38;100.00;61758.50;5088189;28;20056;-74
2021/11/14 02:10:51;;;;;;;50.65;12.63;;;8.40;99.90;;;7.39;100.00;61759.16;5081073;28;20036;-75
2021/11/14 02:13:19;;;;;;;21.65;7.97;;;8.40;99.90;;;7.40;100.00;61759.66;5085060;28;20112;-74
2021/11/14 02:15:48;;;;;;;14.63;7.43;;;8.40;99.90;;;7.41;100.00;61761.31;5089003;28;20134;-75
2021/11/14 02:18:17;;;;;;;14.15;7.18;;;8.40;99.90;;;7.43;100.00;61762.94;5074099;28;20488;-75
2021/11/14 02:20:47;;;;;;;17.38;7.97;;;8.40;99.90;;;7.44;100.00;61764.69;5071680;28;20044;-74
2021/11/14 02:23:16;;;;;;;68.20;11.18;;;8.40;99.90;;;7.46;100.00;61766.22;5090116;28;20482;-74
2021/11/14 02:25:48;;;;;;;71.43;11.32;;;8.40;99.90;;;7.47;100.00;61767.72;5069246;28;20111;-75
2021/11/14 02:28:18;;;;;;;24.92;9.00;;;8.40;99.90;;;7.47;100.00;61767.31;5088772;28;20145;-75
2021/11/14 02:30:48;;;;;;;30.73;9.35;;;8.40;99.90;;;7.46;100.00;61766.66;5085530;28;20153;-75
2021/11/14 02:33:16;;;;;;;34.08;9.18;;;8.30;99.90;;;7.45;100.00;61765.66;5069470;28;20498;-74
2021/11/14 02:35:53;;;;;;;41.35;12.82;;;8.30;99.90;;;7.44;100.00;61764.69;5090426;28;20083;-76
2021/11/14 02:38:21;;;;;;;37.85;10.98;;;8.30;99.90;;;7.44;100.00;61763.88;5073007;28;20127;-75
2021/11/14 02:40:50;;;;;;;32.72;11.30;;;8.30;99.90;;;7.43;100.00;61762.59;5081129;28;20135;-75
2021/11/14 02:43:19;;;;;;;27.10;8.73;;;8.30;99.90;;;7.42;100.00;61762.34;5083431;28;20099;-74
2021/11/14 02:45:47;;;;;;;28.35;8.93;;;8.30;99.90;;;7.42;100.00;61762.06;5087039;28;20162;-74
2021/11/14 02:48:15;;;;;;;23.05;7.07;;;8.30;99.90;;;7.42;100.00;61761.97;5074475;28;20052;-74
2021/11/14 02:50:45;;;;;;;128.02;10.52;;;8.30;99.90;;;7.41;100.00;61760.28;5091827;28;20080;-76
2021/11/14 02:53:13;;;;;;;77.40;8.15;;;8.20;99.90;;;7.39;100.00;61758.91;5080186;28;20060;-77
2021/11/14 02:55:41;;;;;;;110.65;9.95;;;8.20;99.90;;;7.38;100.00;61757.59;5085375;28;20534;-75
2021/11/14 02:58:09;;;;;;;154.18;10.55;;;8.20;99.90;;;7.36;100.00;61755.72;5091291;28;20071;-76
2021/11/14 03:00:54;;;;;;;77.30;7.03;;;8.10;99.90;;;7.34;100.00;61754.09;5090694;28;20083;-76
2021/11/14 03:03:23;;;;;;;217.80;13.90;;;8.10;99.90;;;7.32;100.00;61752.28;5090426;28;20497;-74
2021/11/14 03:05:50;;;;;;;93.72;7.43;;;8.00;99.90;;;7.30;100.00;61750.81;5081810;28;20459;-75
2021/11/14 03:08:17;;;;;;;134.13;8.23;;;8.00;99.90;;;7.29;100.00;61749.38;5073049;28;20087;-74
2021/11/14 03:10:45;;;;;;;218.15;10.27;;;8.00;99.90;;;7.27;100.00;61748.06;5051862;28;20044;-75
2021/11/14 03:13:16;;;;;;;311.13;16.75;;;8.00;99.90;;;7.25;100.00;61746.34;5062849;28;20149;-75
2021/11/14 03:15:50;;;;;;;327.05;14.90;;;8.00;99.90;;;7.23;100.00;61744.63;5090524;28;20113;-75
2021/11/14 03:18:19;;;;;;;526.10;20.95;;;8.00;99.90;;;7.22;100.00;61742.97;5090137;28;20543;-75
2021/11/14 03:20:48;;;;;;;511.05;23.10;;;8.00;99.90;;;7.20;100.00;61741.75;5073970;28;20553;-75
2021/11/14 03:23:17;;;;;;;424.00;20.70;;;8.00;99.90;;;7.19;100.00;61740.53;5067183;28;20090;-75
2021/11/14 03:25:46;;;;;;;626.70;30.90;;;8.00;99.90;;;7.18;100.00;61738.88;5070343;28;20127;-75
2021/11/14 03:28:14;;;;;;;666.63;28.98;;;8.00;99.90;;;7.16;100.00;61736.81;5066584;28;20105;-75
2021/11/14 03:30:42;;;;;;;416.02;22.30;;;8.00;99.90;;;7.14;100.00;61735.41;5063929;28;20124;-75
2021/11/14 03:33:13;;;;;;;391.70;18.52;;;7.90;99.90;;;7.12;100.00;61732.72;5053246;28;20127;-75
2021/11/14 03:35:54;;;;;;;137.25;8.25;;;7.90;99.90;;;7.10;100.00;61730.50;5082968;28;20122;-77
2021/11/14 03:38:28;;;;;;;6.07;1.90;;;7.90;99.90;;;7.08;100.00;61728.47;5076044;28;20123;-77
2021/11/14 03:40:57;;;;;;;4.55;1.80;;;7.90;99.90;;;7.07;100.00;61726.25;5090514;28;20048;-77
2021/11/14 03:43:25;;;;;;;3.97;2.45;;;7.90;99.90;;;7.04;100.00;61723.94;5074168;28;20183;-76
2021/11/14 03:45:52;;;;;;;2.72;1.60;;;7.80;99.90;;;7.02;100.00;61721.53;5090946;28;20169;-76
2021/11/14 03:48:20;;;;;;;3.28;1.98;;;7.70;99.90;;;6.99;100.00;61718.66;5080163;28;20061;-77
2021/11/14 03:50:47;;;;;;;3.10;2.13;;;7.70;99.90;;;6.96;100.00;61716.16;5079818;28;20494;-77
2021/11/14 03:53:14;;;;;;;3.58;2.22;;;7.70;99.90;;;6.93;100.00;61712.59;5088006;28;20166;-77
2021/11/14 03:55:42;;;;;;;3.67;2.47;;;7.50;99.90;;;6.90;100.00;61709.06;5078424;28;20510;-74
2021/11/14 03:58:10;;;;;;;3.67;2.25;;;7.50;99.90;;;6.86;100.00;61705.81;5071548;28;20087;-76
2021/11/14 04:00:42;;;;;;;3.10;1.83;;;7.40;99.90;;;6.83;100.00;61702.72;5092959;28;20072;-73
2021/11/14 04:03:12;;;;;;;;;;;7.40;99.90;;;6.80;100.00;61699.19;5103612;28;20090;-73
2021/11/14 04:05:43;;;;;;;4.15;2.13;;;7.40;99.90;;;6.77;100.00;61696.50;5096640;28;20022;-75
2021/11/14 04:08:13;;;;;;;4.65;2.67;;;7.40;99.90;;;6.74;100.00;61693.13;5074706;28;20055;-75
2021/11/14 04:10:42;;;;;;;4.43;2.72;;;7.30;99.90;;;6.71;100.00;61690.34;5089225;28;20402;-74
2021/11/14 04:13:10;;;;;;;6.68;2.95;;;7.30;99.90;;;6.68;100.00;61687.31;5068525;28;20139;-77
2021/11/14 04:15:37;;;;;;;6.47;3.53;;;7.20;99.90;;;6.65;100.00;61684.16;5089642;28;20118;-75
2021/11/14 04:18:06;;;;;;;3.50;2.05;;;7.30;99.90;;;6.63;100.00;61681.97;5089650;28;20040;-74
2021/11/14 04:20:36;;;;;;;5.72;3.20;;;7.30;99.90;;;6.61;100.00;61679.69;5076211;28;20086;-75
2021/11/14 04:23:05;;;;;;;3.90;2.35;;;7.30;99.90;;;6.59;100.00;61677.50;5065076;28;20059;-74
2021/11/14 04:25:32;;;;;;;6.45;4.00;;;7.20;99.90;;;6.56;100.00;61674.84;5072121;28;20044;-75
2021/11/14 04:28:00;;;;;;;6.07;3.50;;;7.20;99.90;;;6.54;100.00;61672.22;5082946;28;20528;-75
2021/11/14 04:30:28;;;;;;;2.15;1.30;;;7.20;99.90;;;6.52;100.00;61670.47;5087146;28;20082;-75
2021/11/14 04:32:56;;;;;;;3.50;2.47;;;7.30;99.90;;;6.50;100.00;61668.28;5080213;28;20063;-75
2021/11/14 04:35:23;;;;;;;4.93;2.88;;;7.30;99.90;;;6.48;100.00;61666.41;5071965;28;20572;-75
2021/11/14 04:37:51;;;;;;;4.97;2.95;;;7.20;99.90;;;6.46;100.00;61664.81;5088251;28;20102;-76
2021/11/14 04:40:22;;;;;;;5.22;2.58;;;7.20;99.90;;;6.44;100.00;61662.63;5088852;28;20059;-75
2021/11/14 04:42:51;;;;;;;2.53;1.35;;;7.20;99.90;;;6.42;100.00;61660.59;5054966;28;20044;-75
2021/11/14 04:45:20;;;;;;;7.25;1.65;;;7.20;99.90;;;6.41;100.00;61658.97;5072303;28;20123;-75
2021/11/14 04:47:47;;;;;;;4.55;1.20;;;7.20;99.90;;;6.39;100.00;61657.78;5055297;28;20495;-75
2021/11/14 04:50:19;;;;;;;4.53;2.05;;;7.20;99.90;;;6.38;100.00;61656.72;5068188;28;20076;-74
2021/11/14 04:52:47;;;;;;;4.75;2.30;;;7.20;99.90;;;6.36;100.00;61655.13;5093590;28;20071;-75
2021/11/14 04:55:15;;;;;;;4.80;2.63;;;7.20;99.90;;;6.35;100.00;61653.50;5075821;28;20124;-75
2021/11/14 04:57:42;;;;;;;3.67;1.50;;;7.20;99.90;;;6.33;100.00;61652.03;5075210;28;20101;-75
2021/11/14 05:00:13;;;;;;;3.30;1.70;;;7.20;99.90;;;6.32;100.00;61650.69;5075321;28;20083;-75
2021/11/14 05:02:40;;;;;;;8.73;3.08;;;7.20;99.90;;;6.30;100.00;61648.81;5060249;28;20477;-75
2021/11/14 05:05:08;;;;;;;4.72;2.13;;;7.10;99.90;;;6.28;100.00;61647.59;5075888;28;20036;-74
2021/11/14 05:07:35;;;;;;;3.95;1.60;;;7.10;99.90;;;6.27;100.00;61646.53;5093180;28;20040;-75
2021/11/14 05:10:06;;;;;;;6.93;2.30;;;7.10;99.90;;;6.26;100.00;61645.31;5092556;28;20040;-75
2021/11/14 05:12:33;;;;;;;2.05;1.20;;;7.20;99.90;;;6.25;100.00;61644.53;5092619;28;20104;-75
2021/11/14 05:15:00;;;;;;;4.28;2.42;;;7.20;99.90;;;6.25;100.00;61643.97;5091941;28;20087;-75
2021/11/14 05:17:27;;;;;;;4.05;2.13;;;7.20;99.90;;;6.23;100.00;61642.47;5090755;28;20422;-75
2021/11/14 05:19:54;;;;;;;5.70;2.58;;;7.20;99.90;;;6.23;100.00;61641.66;5090150;28;20072;-75
2021/11/14 05:22:21;;;;;;;8.32;3.70;;;7.20;99.90;;;6.22;100.00;61640.56;5092337;28;20130;-75
2021/11/14 05:24:48;;;;;;;8.82;3.55;;;7.10;99.90;;;6.21;100.00;61639.75;5055401;28;20131;-75
2021/11/14 05:27:15;;;;;;;5.57;3.10;;;7.10;99.90;;;6.20;100.00;61639.22;5073248;28;20071;-76
2021/11/14 05:29:42;;;;;;;7.28;3.28;;;7.10;99.90;;;6.20;100.00;61639.09;5092543;28;20080;-75
2021/11/14 05:32:10;;;;;;;8.05;3.88;;;7.20;99.90;;;6.20;100.00;61638.50;5092347;28;20043;-76
2021/11/14 05:34:37;;;;;;;18.45;4.88;;;7.20;99.90;;;6.20;100.00;61638.38;5072452;28;20072;-75
2021/11/14 05:37:04;;;;;;;58.45;8.65;;;7.20;99.90;;;6.19;100.00;61637.41;5091065;28;20098;-75
2021/11/14 05:39:31;;;;;;;84.88;10.57;;;7.10;99.90;;;6.18;100.00;61636.47;5075339;28;20121;-75
2021/11/14 05:41:58;;;;;;;35.83;7.85;;;7.10;99.90;;;6.17;100.00;61635.34;5099213;28;20066;-74
2021/11/14 05:44:26;;;;;;;104.00;11.75;;;7.10;99.90;;;6.16;100.00;61634.53;5080563;28;20066;-75
2021/11/14 05:46:53;;;;;;;119.40;14.80;;;7.10;99.90;;;6.15;100.00;61633.16;5080084;28;20146;-76
2021/11/14 05:49:20;;;;;;;128.90;12.50;;;7.00;99.90;;;6.14;100.00;61632.50;5093610;28;20135;-75
2021/11/14 05:51:47;;;;;;;183.68;16.50;;;7.10;99.90;;;6.13;100.00;61631.41;5092345;28;20119;-75
2021/11/14 05:54:14;;;;;;;163.85;16.75;;;7.00;99.90;;;6.13;100.00;61630.88;5074470;28;20086;-77
2021/11/14 05:56:42;;;;;;;130.82;13.52;;;7.10;99.90;;;6.12;100.00;61630.66;5075822;28;20071;-77
2021/11/14 06:07:05;;;;;;;97.38;12.75;;;7.00;99.90;;;6.09;100.00;61627.41;5082658;28;20040;-76
2021/11/14 06:09:32;;;;;;;100.90;14.60;;;7.00;99.90;;;6.08;100.00;61626.34;5074724;28;20074;-77
2021/11/14 06:12:00;;;;;;;97.13;14.30;;;7.00;99.90;;;6.07;100.00;61625.97;5073963;28;20130;-74
2021/11/14 06:14:29;;;;;;;146.52;15.48;;;7.00;99.90;;;6.07;100.00;61625.41;5091235;28;20518;-77
2021/11/14 06:16:56;;;;;;;128.88;14.23;;;7.10;99.90;;;6.07;100.00;61625.25;5098917;28;20079;-77
2021/11/14 06:19:23;;;;;;;128.40;14.65;;;7.10;99.90;;;6.06;100.00;61624.81;5073540;28;20506;-74
2021/11/14 06:21:50;;;;;;;70.40;11.23;;;7.00;99.90;;;6.06;100.00;61624.09;5091848;28;20078;-77
2021/11/14 06:24:18;;;;;;;131.13;12.98;;;7.10;99.90;;;6.06;100.00;61623.84;5090692;28;20144;-76
2021/11/14 06:26:45;;;;;;;67.95;13.20;;;7.10;99.90;;;6.05;100.00;61623.25;5091004;28;20044;-74
2021/11/14 06:29:12;;;;;;;90.60;11.75;;;7.10;99.90;;;6.05;100.00;61623.41;5090987;28;20083;-76
2021/11/14 06:31:39;;;;;;;64.03;10.90;;;7.10;99.90;;;6.05;100.00;61623.47;5078177;28;20068;-76
2021/11/14 06:34:06;;;;;;;35.75;6.93;;;7.10;99.90;;;6.05;100.00;61623.19;5089705;28;20454;-76
2021/11/14 06:36:33;;;;;;;47.45;8.30;;;7.10;99.90;;;6.05;100.00;61623.03;5075445;28;20565;-75
2021/11/14 06:39:00;;;;;;;34.55;9.30;;;7.10;99.90;;;6.05;100.00;61623.19;5076466;28;20126;-76
2021/11/14 06:41:28;;;;;;;34.65;8.45;;;7.10;99.90;;;6.05;100.00;61623.28;5090009;28;20072;-76
2021/11/14 06:43:54;;;;;;;30.63;7.93;;;7.10;99.90;;;6.05;100.00;61623.13;5101820;28;20068;-76
2021/11/14 06:46:21;;;;;;;19.08;5.97;;;7.10;99.90;;;6.06;100.00;61623.84;5090608;28;20124;-76
2021/11/14 06:48:48;;;;;;;25.33;7.75;;;7.20;99.90;;;6.06;100.00;61624.69;5090990;28;20040;-76
2021/11/14 06:51:17;;;;;;;36.25;7.55;;;7.10;99.90;;;6.07;100.00;61625.25;5091335;28;20267;-76
2021/11/14 06:53:44;;;;;;;57.47;8.77;;;7.20;99.90;;;6.06;100.00;61625.13;5060112;28;20083;-76
2021/11/14 06:56:11;;;;;;;46.28;7.57;;;7.20;99.90;;;6.07;100.00;61625.25;5090964;28;20080;-76
2021/11/14 06:58:38;;;;;;;71.55;7.85;;;7.20;99.90;;;6.06;100.00;61624.97;5065250;28;20083;-76
2021/11/14 07:01:05;;;;;;;70.28;9.70;;;7.20;99.90;;;6.06;100.00;61624.44;5092887;28;20143;-75
2021/11/14 07:03:32;;;;;;;101.38;11.73;;;7.10;99.90;;;6.05;100.00;61624.25;5083591;28;20052;-75
2021/11/14 07:05:59;;;;;;;100.72;10.13;;;7.00;99.90;;;6.05;100.00;61623.72;5095952;28;20048;-76
2021/11/14 07:08:26;;;;;;;66.18;7.68;;;7.10;99.90;;;6.04;100.00;61623.59;5090785;28;20067;-76
2021/11/14 07:10:53;;;;;;;44.58;9.30;;;7.10;99.90;;;6.04;100.00;61622.88;5091213;28;20079;-76
2021/11/14 07:13:20;;;;;;;28.23;7.00;;;7.10;99.90;;;6.04;100.00;61622.88;5081085;28;20079;-76
2021/11/14 07:15:47;;;;;;;45.25;7.80;;;7.00;99.90;;;6.04;100.00;61622.78;5082263;28;20183;-76
2021/11/14 07:18:14;;;;;;;30.92;7.47;;;7.00;99.90;;;6.03;100.00;61622.38;5080478;28;20075;-76
2021/11/14 07:20:41;;;;;;;35.40;8.55;;;7.00;99.90;;;6.03;100.00;61622.13;5090740;28;20130;-76
2021/11/14 07:23:08;;;;;;;40.88;8.23;;;7.10;99.90;;;6.03;100.00;61622.22;5081408;28;20106;-75
2021/11/14 07:25:36;;;;;;;31.50;8.88;;;7.00;99.90;;;6.03;100.00;61621.97;5089239;28;20071;-76
2021/11/14 07:28:03;;;;;;;52.22;10.07;;;7.10;99.90;;;6.03;100.00;61621.53;5080613;28;20098;-76
2021/11/14 07:30:32;;;;;;;72.18;7.43;;;7.00;99.90;;;6.03;100.00;61622.13;5097952;28;20075;-76
2021/11/14 07:32:59;;;;;;;147.48;12.77;;;7.10;99.90;;;6.03;100.00;61622.50;5076818;28;20210;-76
2021/11/14 07:35:27;;;;;;;23.70;7.75;;;7.10;99.90;;;6.04;100.00;61622.63;5087525;28;20179;-76
2021/11/14 07:37:54;;;;;;;16.17;6.20;;;7.10;99.90;;;6.04;100.00;61622.88;5078221;28;20131;-76
2021/11/14 07:40:23;;;;;;;10.88;4.45;;;7.10;99.90;;;6.04;100.00;61623.16;5084376;28;20102;-76
2021/11/14 07:42:52;;;;;;;16.80;6.25;;;7.20;99.90;;;6.04;100.00;61623.16;5075545;28;20059;-76
2021/11/14 07:45:21;;;;;;;12.80;5.88;;;7.10;99.90;;;6.05;100.00;61623.81;5070682;28;20489;-76
2021/11/14 07:47:49;;;;;;;12.40;5.20;;;7.20;99.90;;;6.05;100.00;61623.78;5086674;28;20050;-76
2021/11/14 07:50:22;;;;;;;14.27;6.75;;;7.20;99.90;;;6.06;100.00;61624.63;5088814;28;20298;-75
2021/11/14 07:52:49;;;;;;;;;;;7.20;99.90;;;6.05;100.00;61623.94;5069138;28;20469;-76
2021/11/14 07:55:17;;;;;;;9.10;4.05;;;7.10;99.90;;;6.05;100.00;61623.88;5081658;28;20393;-76
2021/11/14 07:57:44;;;;;;;10.60;4.88;;;7.10;99.90;;;6.06;100.00;61624.16;5066843;28;20115;-76
2021/11/14 08:00:15;;;;;;;6.45;3.70;;;7.20;99.90;;;6.07;100.00;61624.94;5053137;28;20107;-76
2021/11/14 08:02:44;;;;;;;12.98;6.38;;;7.20;99.90;;;6.07;100.00;61625.91;5069823;28;20494;-76
2021/11/14 08:05:13;;;;;;;8.60;3.75;;;7.30;99.90;;;6.08;100.00;61626.56;5089839;28;20044;-75
2021/11/14 08:07:41;;;;;;;8.73;4.63;;;7.30;99.90;;;6.09;100.00;61627.88;5058422;28;20098;-76
2021/11/14 08:10:09;;;;;;;11.10;4.38;;;7.30;99.90;;;6.10;100.00;61629.09;5075143;28;20079;-75
2021/11/14 08:12:36;;;;;;;9.38;3.67;;;7.30;99.90;;;6.12;100.00;61630.91;5077567;28;20052;-76
2021/11/14 08:15:06;;;;;;;25.40;6.32;;;7.40;99.90;;;6.13;100.00;61632.25;5057071;28;20135;-75
2021/11/14 08:17:33;;;;;;;10.13;5.18;;;7.40;99.90;;;6.14;100.00;61633.19;5071714;28;20116;-76
2021/11/14 08:20:01;;;;;;;10.73;5.88;;;7.40;99.90;;;6.14;100.00;61633.56;5062168;28;20054;-73
2021/11/14 08:22:30;;;;;;;11.68;6.28;;;7.30;99.90;;;6.15;100.00;61633.97;5064837;28;20122;-76
2021/11/14 08:25:00;;;;;;;8.38;4.15;;;7.30;99.90;;;6.16;100.00;61634.91;5077505;28;20124;-76
2021/11/14 08:27:30;;;;;;;16.35;6.63;;;7.40;99.90;;;6.17;100.00;61636.41;5071685;28;20045;-76
2021/11/14 08:29:59;;;;;;;11.40;6.82;;;7.40;99.90;;;6.18;100.00;61637.63;5075063;28;20117;-76
2021/11/14 08:32:26;;;;;;;15.68;7.43;;;7.40;99.90;;;6.20;100.00;61638.81;5067094;28;20076;-76
2021/11/14 08:34:53;;;;;;;8.13;5.00;;;7.40;99.90;;;6.21;100.00;61640.44;5086794;28;20079;-76
2021/11/14 08:37:20;;;;;;;9.60;4.53;;;7.50;99.90;;;6.23;100.00;61642.38;5083491;28;20103;-76
2021/11/14 08:39:49;;;;;;;9.40;4.85;;;7.50;99.90;;;6.25;100.00;61644.38;5062190;28;20044;-77
2021/11/14 08:42:16;;;;;;;11.40;5.38;;;7.60;99.90;;;6.27;100.00;61647.16;5060057;28;20125;-76
2021/11/14 08:44:44;;;;;;;11.05;6.55;;;7.70;99.90;;;6.30;100.00;61649.34;5079821;28;20127;-76
2021/11/14 08:47:12;;;;;;;11.77;6.85;;;7.60;99.90;;;6.31;100.00;61650.38;5080666;28;20094;-76
2021/11/14 08:49:40;;;;;;;11.70;7.28;;;7.60;99.90;;;6.32;100.00;61652.06;5064479;28;20056;-76
2021/11/14 08:52:08;;;;;;;16.65;8.07;;;7.60;99.90;;;6.33;100.00;61653.09;5073675;28;20473;-76
2021/11/14 08:54:39;;;;;;;10.23;6.05;;;7.70;99.90;;;6.35;100.00;61654.84;5075135;28;20047;-76
2021/11/14 08:57:07;;;;;;;14.05;8.68;;;7.70;99.90;;;6.37;100.00;61656.59;5055173;28;20080;-76
2021/11/14 08:59:34;;;;;;;16.25;8.88;;;7.70;99.90;;;6.38;100.00;61657.56;5080809;28;20134;-76
2021/11/14 09:02:03;;;;;;;16.27;9.43;;;7.70;99.90;;;6.40;100.00;61659.06;5076984;28;20127;-76
2021/11/14 09:04:30;;;;;;;18.63;8.73;;;7.70;99.90;;;6.42;100.00;61660.81;5083438;28;20074;-76
2021/11/14 09:06:59;;;;;;;19.85;9.73;;;7.80;99.90;;;6.44;100.00;61663.09;5071654;28;20076;-76
2021/11/14 09:09:26;;;;;;;12.00;6.90;;;7.80;99.90;;;6.46;100.00;61665.56;5091780;28;20245;-76
2021/11/14 09:11:55;;;;;;;16.30;6.53;;;7.90;99.90;;;6.49;100.00;61669.28;5055289;28;20127;-76
2021/11/14 09:14:24;;;;;;;20.15;9.07;;;8.00;99.90;;;6.52;100.00;61671.16;5084563;28;20079;-76
2021/11/14 09:16:53;;;;;;;33.80;11.57;;;8.00;99.90;;;6.53;100.00;61673.22;5093129;28;20079;-76
2021/11/14 09:19:21;;;;;;;22.98;10.40;;;7.90;99.90;;;6.56;100.00;61675.53;5064025;28;20052;-76
2021/11/14 09:21:50;;;;;;;63.58;13.57;;;8.00;99.90;;;6.57;100.00;61677.59;5086468;28;20090;-76
2021/11/14 09:24:18;;;;;;;50.15;13.43;;;8.00;99.90;;;6.59;100.00;61679.22;5092615;28;20082;-76
2021/11/14 09:26:45;;;;;;;26.92;9.10;;;8.00;99.90;;;6.61;100.00;61681.66;5092590;28;20123;-76
2021/11/14 09:29:15;;;;;;;89.25;17.27;;;8.00;99.90;;;6.63;100.00;61683.47;5087751;28;20076;-76
2021/11/14 09:31:42;;;;;;;73.80;15.30;;;8.00;99.90;;;6.65;100.00;61685.50;5084716;28;20090;-76
2021/11/14 09:34:10;;;;;;;38.83;11.35;;;8.00;99.90;;;6.66;100.00;61686.81;5060250;28;20068;-76
2021/11/14 09:36:38;;;;;;;26.20;10.35;;;8.10;99.90;;;6.69;100.00;61689.34;5086897;28;20077;-74
2021/11/14 09:39:10;;;;;;;33.47;11.18;;;8.10;99.90;;;6.72;100.00;61692.47;5079218;28;20048;-75
2021/11/14 09:41:44;;;;;;;161.17;18.07;;;8.20;99.90;;;6.74;100.00;61693.66;5071710;28;20112;-76
2021/11/14 09:44:17;;;;;;;128.32;17.65;;;8.20;99.90;;;6.75;100.00;61695.56;5062956;28;20076;-76
2021/11/14 09:46:49;;;;;;;48.28;14.30;;;8.10;99.90;;;6.77;100.00;61697.41;5077080;28;20621;-75
2021/11/14 09:49:19;;;;;;;175.50;26.17;;;8.20;99.90;;;6.79;100.00;61699.31;5072633;28;20176;-75
2021/11/14 09:51:48;;;;;;;115.93;22.73;;;8.10;99.90;;;6.81;100.00;61701.13;5102172;28;20131;-76
2021/11/14 09:54:17;;;;;;;180.57;23.30;;;8.20;99.90;;;6.82;100.00;61702.91;5071889;28;20076;-75
2021/11/14 09:56:45;;;;;;;57.78;15.90;;;8.10;99.90;;;6.84;100.00;61705.09;5074415;28;20073;-76
2021/11/14 09:59:15;;;;;;;128.55;21.83;;;8.20;99.90;;;6.87;100.00;61707.50;5090069;28;20040;-74
2021/11/14 10:01:44;;;;;;;77.85;20.92;;;8.20;99.90;;;6.89;100.00;61710.16;5103593;28;20064;-75
2021/11/14 10:04:12;;;;;;;55.15;16.65;;;8.30;99.90;;;6.90;100.00;61711.63;5073854;28;20149;-75
2021/11/14 10:06:39;;;;;;;144.77;25.58;;;8.30;99.90;;;6.91;100.00;61712.47;5091806;28;20127;-75
2021/11/14 10:09:07;;;;;;;62.33;18.75;;;8.20;99.90;;;6.92;100.00;61713.28;5070320;28;20044;-75
2021/11/14 10:11:41;;;;;;;129.00;27.45;;;8.20;99.90;;;6.92;100.00;61712.53;5090481;28;20040;-75
2021/11/14 10:14:09;;;;;;;51.35;18.13;;;8.00;99.90;;;6.93;100.00;61713.31;5089059;28;20168;-75
2021/11/14 10:16:38;;;;;;;109.53;25.85;;;8.10;99.90;;;6.93;100.00;61713.31;5089371;28;20040;-75
2021/11/14 10:19:14;;;;;;;34.92;17.92;;;8.00;99.90;;;6.94;100.00;61714.66;5077481;28;20523;-75
2021/11/14 10:21:45;;;;;;;56.13;22.15;;;8.10;99.90;;;6.95;100.00;61715.63;5076577;28;20044;-75
2021/11/14 10:24:15;;;;;;;67.25;24.13;;;8.20;99.90;;;6.95;100.00;61715.34;5039337;28;20137;-76
2021/11/14 10:26:42;;;;;;;57.00;23.75;;;8.00;99.90;;;6.95;100.00;61715.66;5083345;28;20481;-75
2021/11/14 10:29:12;;;;;;;46.47;22.27;;;8.10;99.90;;;6.96;100.00;61716.78;5050299;28;20109;-75